sensor_id;sensor_type;location;lat;lon;timestamp;temperature;humidity
1447;DHT22;717;51.522;7.266;2023-03-01T00:01:36;8.00;92.20
1447;DHT22;717;51.522;7.266;2023-03-01T00:04:05;8.00;92.10
1447;DHT22;717;51.522;7.266;2023-03-01T00:06:34;8.00;92.30
1447;DHT22;717;51.522;7.266;2023-03-01T00:09:06;8.00;92.10
1447;DHT22;717;51.522;7.266;2023-03-01T00:11:35;7.90;92.10
1447;DHT22;717;51.522;7.266;2023-03-01T00:14:06;7.90;92.30
1447;DHT22;717;51.522;7.266;2023-03-01T00:16:37;7.90;92.30
1447;DHT22;717;51.522;7.266;2023-03-01T00:19:08;7.90;92.10
1447;DHT22;717;51.522;7.266;2023-03-01T00:21:37;7.90;92.20
1447;DHT22;717;51.522;7.266;2023-03-01T00:24:06;7.90;92.20
1447;DHT22;717;51.522;7.266;2023-03-01T00:26:36;7.90;92.30
1447;DHT22;717;51.522;7.266;2023-03-01T00:29:07;7.80;92.30
1447;DHT22;717;51.522;7.266;2023-03-01T00:31:35;7.80;92.20
1447;DHT22;717;51.522;7.266;2023-03-01T00:34:05;7.80;92.30
1447;DHT22;717;51.522;7.266;2023-03-01T00:36:35;7.80;92.30
1447;DHT22;717;51.522;7.266;2023-03-01T00:39:07;7.80;92.40
1447;DHT22;717;51.522;7.266;2023-03-01T00:41:36;7.80;92.30
1447;DHT22;717;51.522;7.266;2023-03-01T00:44:08;7.70;92.30
1447;DHT22;717;51.522;7.266;2023-03-01T00:46:37;7.70;92.50
1447;DHT22;717;51.522;7.266;2023-03-01T00:49:06;7.70;92.30
1447;DHT22;717;51.522;7.266;2023-03-01T00:51:34;7.70;92.50
1447;DHT22;717;51.522;7.266;2023-03-01T00:54:04;7.70;92.40
1447;DHT22;717;51.522;7.266;2023-03-01T00:56:33;7.70;92.40
1447;DHT22;717;51.522;7.266;2023-03-01T00:59:02;7.70;92.50
1447;DHT22;717;51.522;7.266;2023-03-01T01:01:33;7.70;92.40
1447;DHT22;717;51.522;7.266;2023-03-01T01:04:04;7.60;92.40
1447;DHT22;717;51.522;7.266;2023-03-01T01:06:34;7.60;92.60
1447;DHT22;717;51.522;7.266;2023-03-01T01:09:04;7.60;92.50
1447;DHT22;717;51.522;7.266;2023-03-01T01:11:33;7.60;92.50
1447;DHT22;717;51.522;7.266;2023-03-01T01:14:03;7.60;92.60
1447;DHT22;717;51.522;7.266;2023-03-01T01:16:34;7.60;92.70
1447;DHT22;717;51.522;7.266;2023-03-01T01:19:02;7.50;92.60
1447;DHT22;717;51.522;7.266;2023-03-01T01:21:32;7.50;92.60
1447;DHT22;717;51.522;7.266;2023-03-01T01:24:02;7.50;92.60
1447;DHT22;717;51.522;7.266;2023-03-01T01:26:32;7.50;92.60
1447;DHT22;717;51.522;7.266;2023-03-01T01:29:03;7.50;92.70
1447;DHT22;717;51.522;7.266;2023-03-01T01:31:36;7.50;92.60
1447;DHT22;717;51.522;7.266;2023-03-01T01:34:07;7.50;92.80
1447;DHT22;717;51.522;7.266;2023-03-01T01:36:36;7.50;92.60
1447;DHT22;717;51.522;7.266;2023-03-01T01:39:05;7.40;92.70
1447;DHT22;717;51.522;7.266;2023-03-01T01:41:40;7.40;92.70
1447;DHT22;717;51.522;7.266;2023-03-01T01:44:12;7.40;92.70
1447;DHT22;717;51.522;7.266;2023-03-01T01:46:45;7.40;92.80
1447;DHT22;717;51.522;7.266;2023-03-01T01:49:28;7.40;92.90
1447;DHT22;717;51.522;7.266;2023-03-01T01:52:04;7.30;93.20
1447;DHT22;717;51.522;7.266;2023-03-01T01:54:40;7.30;92.90
1447;DHT22;717;51.522;7.266;2023-03-01T01:57:14;7.30;92.90
1447;DHT22;717;51.522;7.266;2023-03-01T01:59:47;7.30;92.90
1447;DHT22;717;51.522;7.266;2023-03-01T02:02:20;7.30;92.90
1447;DHT22;717;51.522;7.266;2023-03-01T02:04:55;7.30;92.90
1447;DHT22;717;51.522;7.266;2023-03-01T02:07:27;7.30;92.80
1447;DHT22;717;51.522;7.266;2023-03-01T02:09:57;7.30;92.80
1447;DHT22;717;51.522;7.266;2023-03-01T02:12:26;7.30;92.90
1447;DHT22;717;51.522;7.266;2023-03-01T02:14:55;7.30;92.80
1447;DHT22;717;51.522;7.266;2023-03-01T02:17:26;7.20;92.80
1447;DHT22;717;51.522;7.266;2023-03-01T02:20:06;7.20;92.90
1447;DHT22;717;51.522;7.266;2023-03-01T02:22:37;7.20;93.20
1447;DHT22;717;51.522;7.266;2023-03-01T02:25:12;7.20;92.90
1447;DHT22;717;51.522;7.266;2023-03-01T02:27:51;7.20;93.00
1447;DHT22;717;51.522;7.266;2023-03-01T02:30:25;7.20;93.30
1447;DHT22;717;51.522;7.266;2023-03-01T02:32:56;7.20;93.20
1447;DHT22;717;51.522;7.266;2023-03-01T02:35:30;7.20;92.90
1447;DHT22;717;51.522;7.266;2023-03-01T02:38:01;7.10;93.00
1447;DHT22;717;51.522;7.266;2023-03-01T02:40:30;7.10;92.90
1447;DHT22;717;51.522;7.266;2023-03-01T02:43:02;7.10;92.90
1447;DHT22;717;51.522;7.266;2023-03-01T02:45:34;7.10;93.00
1447;DHT22;717;51.522;7.266;2023-03-01T02:48:03;7.10;93.20
1447;DHT22;717;51.522;7.266;2023-03-01T02:50:56;7.10;93.00
1447;DHT22;717;51.522;7.266;2023-03-01T02:53:35;7.10;93.80
1447;DHT22;717;51.522;7.266;2023-03-01T02:56:07;7.10;93.30
1447;DHT22;717;51.522;7.266;2023-03-01T02:58:38;7.00;92.80
1447;DHT22;717;51.522;7.266;2023-03-01T03:01:16;7.00;93.00
1447;DHT22;717;51.522;7.266;2023-03-01T03:03:45;7.00;93.10
1447;DHT22;717;51.522;7.266;2023-03-01T03:06:13;7.00;93.10
1447;DHT22;717;51.522;7.266;2023-03-01T03:08:42;7.00;93.00
1447;DHT22;717;51.522;7.266;2023-03-01T03:11:10;7.00;93.10
1447;DHT22;717;51.522;7.266;2023-03-01T03:13:39;7.00;93.00
1447;DHT22;717;51.522;7.266;2023-03-01T03:16:16;7.00;93.00
1447;DHT22;717;51.522;7.266;2023-03-01T03:18:44;7.00;93.10
1447;DHT22;717;51.522;7.266;2023-03-01T03:21:14;7.00;93.10
1447;DHT22;717;51.522;7.266;2023-03-01T03:23:43;6.90;93.00
1447;DHT22;717;51.522;7.266;2023-03-01T03:26:11;6.90;93.10
1447;DHT22;717;51.522;7.266;2023-03-01T03:28:41;7.00;93.10
1447;DHT22;717;51.522;7.266;2023-03-01T03:31:09;6.90;93.10
1447;DHT22;717;51.522;7.266;2023-03-01T03:33:40;7.00;93.20
1447;DHT22;717;51.522;7.266;2023-03-01T03:36:09;6.90;93.10
1447;DHT22;717;51.522;7.266;2023-03-01T03:38:39;6.90;93.10
1447;DHT22;717;51.522;7.266;2023-03-01T03:41:08;6.90;93.30
1447;DHT22;717;51.522;7.266;2023-03-01T03:43:38;6.90;93.20
1447;DHT22;717;51.522;7.266;2023-03-01T03:46:09;6.90;93.10
1447;DHT22;717;51.522;7.266;2023-03-01T03:48:42;6.90;93.10
1447;DHT22;717;51.522;7.266;2023-03-01T03:51:11;6.90;93.30
1447;DHT22;717;51.522;7.266;2023-03-01T03:53:40;6.90;93.20
1447;DHT22;717;51.522;7.266;2023-03-01T03:56:10;6.80;93.20
1447;DHT22;717;51.522;7.266;2023-03-01T03:58:38;6.80;93.60
1447;DHT22;717;51.522;7.266;2023-03-01T04:01:07;6.80;93.20
1447;DHT22;717;51.522;7.266;2023-03-01T04:03:35;6.80;93.20
1447;DHT22;717;51.522;7.266;2023-03-01T04:06:07;6.80;93.20
1447;DHT22;717;51.522;7.266;2023-03-01T04:08:35;6.80;93.30
1447;DHT22;717;51.522;7.266;2023-03-01T04:11:06;6.80;93.20
1447;DHT22;717;51.522;7.266;2023-03-01T04:13:47;6.80;93.20
1447;DHT22;717;51.522;7.266;2023-03-01T04:16:15;6.70;93.30
1447;DHT22;717;51.522;7.266;2023-03-01T04:18:44;6.70;93.40
1447;DHT22;717;51.522;7.266;2023-03-01T04:21:16;6.70;93.40
1447;DHT22;717;51.522;7.266;2023-03-01T04:23:45;6.70;93.30
1447;DHT22;717;51.522;7.266;2023-03-01T04:26:18;6.70;93.30
1447;DHT22;717;51.522;7.266;2023-03-01T04:28:46;6.70;93.30
1447;DHT22;717;51.522;7.266;2023-03-01T04:31:17;6.70;93.30
1447;DHT22;717;51.522;7.266;2023-03-01T04:33:47;6.70;93.20
1447;DHT22;717;51.522;7.266;2023-03-01T04:36:20;6.70;93.40
1447;DHT22;717;51.522;7.266;2023-03-01T04:38:50;6.60;93.50
1447;DHT22;717;51.522;7.266;2023-03-01T04:41:20;6.60;93.30
1447;DHT22;717;51.522;7.266;2023-03-01T04:43:49;6.60;93.40
1447;DHT22;717;51.522;7.266;2023-03-01T04:46:20;6.60;93.40
1447;DHT22;717;51.522;7.266;2023-03-01T04:48:49;6.60;93.50
1447;DHT22;717;51.522;7.266;2023-03-01T04:51:20;6.60;93.40
1447;DHT22;717;51.522;7.266;2023-03-01T04:53:49;6.60;93.50
1447;DHT22;717;51.522;7.266;2023-03-01T04:56:17;6.60;93.50
1447;DHT22;717;51.522;7.266;2023-03-01T04:58:48;6.50;93.30
1447;DHT22;717;51.522;7.266;2023-03-01T05:01:20;6.50;93.40
1447;DHT22;717;51.522;7.266;2023-03-01T05:03:50;6.50;93.50
1447;DHT22;717;51.522;7.266;2023-03-01T05:06:22;6.50;93.40
1447;DHT22;717;51.522;7.266;2023-03-01T05:08:51;6.50;93.50
1447;DHT22;717;51.522;7.266;2023-03-01T05:11:19;6.50;93.50
1447;DHT22;717;51.522;7.266;2023-03-01T05:13:48;6.50;93.50
1447;DHT22;717;51.522;7.266;2023-03-01T05:16:20;6.50;93.40
1447;DHT22;717;51.522;7.266;2023-03-01T05:18:49;6.40;93.50
1447;DHT22;717;51.522;7.266;2023-03-01T05:21:23;6.40;93.50
1447;DHT22;717;51.522;7.266;2023-03-01T05:23:52;6.40;93.60
1447;DHT22;717;51.522;7.266;2023-03-01T05:26:21;6.40;93.60
1447;DHT22;717;51.522;7.266;2023-03-01T05:28:54;6.40;93.50
1447;DHT22;717;51.522;7.266;2023-03-01T05:31:24;6.40;93.60
1447;DHT22;717;51.522;7.266;2023-03-01T05:33:52;6.40;93.60
1447;DHT22;717;51.522;7.266;2023-03-01T05:36:23;6.40;93.50
1447;DHT22;717;51.522;7.266;2023-03-01T05:38:52;6.40;93.60
1447;DHT22;717;51.522;7.266;2023-03-01T05:41:21;6.30;93.50
1447;DHT22;717;51.522;7.266;2023-03-01T05:43:49;6.40;93.60
1447;DHT22;717;51.522;7.266;2023-03-01T05:46:18;6.30;93.90
1447;DHT22;717;51.522;7.266;2023-03-01T05:48:49;6.30;93.60
1447;DHT22;717;51.522;7.266;2023-03-01T05:51:17;6.30;93.50
1447;DHT22;717;51.522;7.266;2023-03-01T05:53:50;6.30;93.60
1447;DHT22;717;51.522;7.266;2023-03-01T05:56:18;6.30;93.70
1447;DHT22;717;51.522;7.266;2023-03-01T05:58:48;6.30;93.60
1447;DHT22;717;51.522;7.266;2023-03-01T06:01:16;6.30;93.70
1447;DHT22;717;51.522;7.266;2023-03-01T06:03:45;6.30;93.60
1447;DHT22;717;51.522;7.266;2023-03-01T06:06:13;6.30;93.60
1447;DHT22;717;51.522;7.266;2023-03-01T06:08:42;6.30;93.70
1447;DHT22;717;51.522;7.266;2023-03-01T06:11:13;6.20;93.80
1447;DHT22;717;51.522;7.266;2023-03-01T06:13:42;6.20;93.80
1447;DHT22;717;51.522;7.266;2023-03-01T06:16:11;6.20;93.70
1447;DHT22;717;51.522;7.266;2023-03-01T06:18:40;6.20;93.70
1447;DHT22;717;51.522;7.266;2023-03-01T06:21:09;6.20;93.70
1447;DHT22;717;51.522;7.266;2023-03-01T06:23:37;6.20;93.60
1447;DHT22;717;51.522;7.266;2023-03-01T06:26:07;6.20;93.60
1447;DHT22;717;51.522;7.266;2023-03-01T06:28:38;6.20;93.70
1447;DHT22;717;51.522;7.266;2023-03-01T06:31:06;6.20;93.60
1447;DHT22;717;51.522;7.266;2023-03-01T06:33:35;6.20;93.70
1447;DHT22;717;51.522;7.266;2023-03-01T06:36:05;6.20;93.60
1447;DHT22;717;51.522;7.266;2023-03-01T06:38:33;6.20;93.80
1447;DHT22;717;51.522;7.266;2023-03-01T06:41:02;6.20;93.60
1447;DHT22;717;51.522;7.266;2023-03-01T06:43:31;6.20;93.60
1447;DHT22;717;51.522;7.266;2023-03-01T06:46:03;6.20;93.90
1447;DHT22;717;51.522;7.266;2023-03-01T06:48:32;6.20;93.90
1447;DHT22;717;51.522;7.266;2023-03-01T06:51:01;6.10;94.00
1447;DHT22;717;51.522;7.266;2023-03-01T06:53:30;6.10;93.90
1447;DHT22;717;51.522;7.266;2023-03-01T06:55:59;6.10;93.90
1447;DHT22;717;51.522;7.266;2023-03-01T06:58:28;6.10;94.00
1447;DHT22;717;51.522;7.266;2023-03-01T07:00:56;6.20;93.80
1447;DHT22;717;51.522;7.266;2023-03-01T07:03:27;6.20;93.70
1447;DHT22;717;51.522;7.266;2023-03-01T07:05:56;6.10;93.80
1447;DHT22;717;51.522;7.266;2023-03-01T07:08:25;6.10;93.80
1447;DHT22;717;51.522;7.266;2023-03-01T07:10:55;6.10;93.60
1447;DHT22;717;51.522;7.266;2023-03-01T07:13:24;6.10;93.70
1447;DHT22;717;51.522;7.266;2023-03-01T07:15:52;6.10;93.90
1447;DHT22;717;51.522;7.266;2023-03-01T07:18:21;6.10;93.90
1447;DHT22;717;51.522;7.266;2023-03-01T07:20:52;6.10;93.80
1447;DHT22;717;51.522;7.266;2023-03-01T07:23:20;6.10;93.70
1447;DHT22;717;51.522;7.266;2023-03-01T07:25:52;6.10;93.90
1447;DHT22;717;51.522;7.266;2023-03-01T07:28:23;6.10;94.00
1447;DHT22;717;51.522;7.266;2023-03-01T07:30:51;6.20;94.00
1447;DHT22;717;51.522;7.266;2023-03-01T07:33:20;6.20;93.90
1447;DHT22;717;51.522;7.266;2023-03-01T07:35:58;6.20;94.00
1447;DHT22;717;51.522;7.266;2023-03-01T07:38:27;6.20;93.80
1447;DHT22;717;51.522;7.266;2023-03-01T07:40:58;6.20;93.80
1447;DHT22;717;51.522;7.266;2023-03-01T07:43:27;6.20;93.80
1447;DHT22;717;51.522;7.266;2023-03-01T07:45:58;6.20;93.70
1447;DHT22;717;51.522;7.266;2023-03-01T07:48:27;6.20;94.00
1447;DHT22;717;51.522;7.266;2023-03-01T07:51:01;6.20;93.90
1447;DHT22;717;51.522;7.266;2023-03-01T07:53:30;6.20;94.20
1447;DHT22;717;51.522;7.266;2023-03-01T07:56:03;6.20;93.70
1447;DHT22;717;51.522;7.266;2023-03-01T07:58:34;6.30;94.00
1447;DHT22;717;51.522;7.266;2023-03-01T08:01:03;6.30;94.40
1447;DHT22;717;51.522;7.266;2023-03-01T08:03:32;6.30;94.50
1447;DHT22;717;51.522;7.266;2023-03-01T08:06:05;6.30;94.10
1447;DHT22;717;51.522;7.266;2023-03-01T08:08:34;6.30;94.20
1447;DHT22;717;51.522;7.266;2023-03-01T08:11:05;6.30;94.20
1447;DHT22;717;51.522;7.266;2023-03-01T08:13:34;6.40;94.10
1447;DHT22;717;51.522;7.266;2023-03-01T08:16:04;6.40;94.10
1447;DHT22;717;51.522;7.266;2023-03-01T08:18:33;6.50;94.20
1447;DHT22;717;51.522;7.266;2023-03-01T08:21:06;6.50;94.10
1447;DHT22;717;51.522;7.266;2023-03-01T08:23:36;6.50;93.90
1447;DHT22;717;51.522;7.266;2023-03-01T08:26:06;6.50;94.10
1447;DHT22;717;51.522;7.266;2023-03-01T08:28:36;6.50;94.10
1447;DHT22;717;51.522;7.266;2023-03-01T08:31:13;6.60;94.40
1447;DHT22;717;51.522;7.266;2023-03-01T08:33:42;6.60;94.40
1447;DHT22;717;51.522;7.266;2023-03-01T08:36:18;6.70;94.20
1447;DHT22;717;51.522;7.266;2023-03-01T08:38:47;6.70;94.20
1447;DHT22;717;51.522;7.266;2023-03-01T08:41:15;6.70;94.00
1447;DHT22;717;51.522;7.266;2023-03-01T08:43:44;6.70;93.80
1447;DHT22;717;51.522;7.266;2023-03-01T08:46:13;6.70;93.90
1447;DHT22;717;51.522;7.266;2023-03-01T08:48:42;6.70;94.10
1447;DHT22;717;51.522;7.266;2023-03-01T08:51:12;6.80;94.00
1447;DHT22;717;51.522;7.266;2023-03-01T08:53:44;6.80;93.80
1447;DHT22;717;51.522;7.266;2023-03-01T08:56:14;6.80;93.80
1447;DHT22;717;51.522;7.266;2023-03-01T08:58:44;6.90;93.80
1447;DHT22;717;51.522;7.266;2023-03-01T09:01:16;6.90;93.90
1447;DHT22;717;51.522;7.266;2023-03-01T09:03:45;6.90;94.20
1447;DHT22;717;51.522;7.266;2023-03-01T09:06:14;7.00;93.80
1447;DHT22;717;51.522;7.266;2023-03-01T09:08:46;7.00;94.10
1447;DHT22;717;51.522;7.266;2023-03-01T09:11:17;7.00;93.90
1447;DHT22;717;51.522;7.266;2023-03-01T09:13:47;7.10;93.80
1447;DHT22;717;51.522;7.266;2023-03-01T09:16:18;7.20;94.00
1447;DHT22;717;51.522;7.266;2023-03-01T09:18:49;7.20;93.90
1447;DHT22;717;51.522;7.266;2023-03-01T09:21:19;7.30;93.60
1447;DHT22;717;51.522;7.266;2023-03-01T09:23:51;7.30;93.70
1447;DHT22;717;51.522;7.266;2023-03-01T09:26:21;7.30;93.40
1447;DHT22;717;51.522;7.266;2023-03-01T09:28:51;7.30;93.60
1447;DHT22;717;51.522;7.266;2023-03-01T09:31:21;7.30;93.60
1447;DHT22;717;51.522;7.266;2023-03-01T09:33:52;7.40;93.50
1447;DHT22;717;51.522;7.266;2023-03-01T09:36:22;7.40;93.90
1447;DHT22;717;51.522;7.266;2023-03-01T09:38:54;7.40;93.80
1447;DHT22;717;51.522;7.266;2023-03-01T09:41:44;7.50;93.60
1447;DHT22;717;51.522;7.266;2023-03-01T09:44:21;7.50;93.50
1447;DHT22;717;51.522;7.266;2023-03-01T09:46:52;7.50;93.70
1447;DHT22;717;51.522;7.266;2023-03-01T09:49:24;7.60;93.70
1447;DHT22;717;51.522;7.266;2023-03-01T09:51:57;7.60;93.90
1447;DHT22;717;51.522;7.266;2023-03-01T09:54:29;7.60;93.70
1447;DHT22;717;51.522;7.266;2023-03-01T09:57:16;7.70;93.60
1447;DHT22;717;51.522;7.266;2023-03-01T10:02:43;7.70;93.70
1447;DHT22;717;51.522;7.266;2023-03-01T10:05:25;7.80;93.80
1447;DHT22;717;51.522;7.266;2023-03-01T10:08:06;7.80;93.60
1447;DHT22;717;51.522;7.266;2023-03-01T10:10:47;7.80;93.60
1447;DHT22;717;51.522;7.266;2023-03-01T10:13:21;7.90;93.50
1447;DHT22;717;51.522;7.266;2023-03-01T10:15:55;7.90;93.80
1447;DHT22;717;51.522;7.266;2023-03-01T10:18:26;8.00;93.70
1447;DHT22;717;51.522;7.266;2023-03-01T10:20:59;8.10;93.50
1447;DHT22;717;51.522;7.266;2023-03-01T10:23:29;8.10;93.60
1447;DHT22;717;51.522;7.266;2023-03-01T10:26:25;8.20;93.50
1447;DHT22;717;51.522;7.266;2023-03-01T10:29:01;8.20;93.40
1447;DHT22;717;51.522;7.266;2023-03-01T10:31:38;8.30;93.40
1447;DHT22;717;51.522;7.266;2023-03-01T10:34:10;8.40;93.50
1447;DHT22;717;51.522;7.266;2023-03-01T10:36:40;8.40;93.40
1447;DHT22;717;51.522;7.266;2023-03-01T10:39:15;8.50;93.50
1447;DHT22;717;51.522;7.266;2023-03-01T10:42:02;8.60;93.40
1447;DHT22;717;51.522;7.266;2023-03-01T10:44:40;8.60;93.50
1447;DHT22;717;51.522;7.266;2023-03-01T10:47:20;8.70;93.30
1447;DHT22;717;51.522;7.266;2023-03-01T10:49:58;8.80;93.00
1447;DHT22;717;51.522;7.266;2023-03-01T10:52:30;8.80;93.20
1447;DHT22;717;51.522;7.266;2023-03-01T10:55:02;8.90;93.10
1447;DHT22;717;51.522;7.266;2023-03-01T10:57:36;9.00;93.10
1447;DHT22;717;51.522;7.266;2023-03-01T11:00:21;9.00;93.00
1447;DHT22;717;51.522;7.266;2023-03-01T11:03:02;9.10;93.00
1447;DHT22;717;51.522;7.266;2023-03-01T11:05:31;9.20;93.10
1447;DHT22;717;51.522;7.266;2023-03-01T11:08:02;9.30;93.10
1447;DHT22;717;51.522;7.266;2023-03-01T11:10:33;9.40;93.10
1447;DHT22;717;51.522;7.266;2023-03-01T11:13:16;9.50;92.80
1447;DHT22;717;51.522;7.266;2023-03-01T11:15:58;9.60;92.20
1447;DHT22;717;51.522;7.266;2023-03-01T11:18:29;9.70;92.50
1447;DHT22;717;51.522;7.266;2023-03-01T11:20:59;9.80;92.90
1447;DHT22;717;51.522;7.266;2023-03-01T11:23:30;9.90;92.40
1447;DHT22;717;51.522;7.266;2023-03-01T11:26:02;9.90;92.30
1447;DHT22;717;51.522;7.266;2023-03-01T11:28:38;10.00;92.10
1447;DHT22;717;51.522;7.266;2023-03-01T11:31:10;10.10;92.20
1447;DHT22;717;51.522;7.266;2023-03-01T11:33:43;10.20;92.20
1447;DHT22;717;51.522;7.266;2023-03-01T11:36:26;10.30;92.00
1447;DHT22;717;51.522;7.266;2023-03-01T11:38:59;10.40;92.10
1447;DHT22;717;51.522;7.266;2023-03-01T11:41:33;10.50;92.00
1447;DHT22;717;51.522;7.266;2023-03-01T11:44:12;10.60;91.80
1447;DHT22;717;51.522;7.266;2023-03-01T11:46:51;10.60;91.70
1447;DHT22;717;51.522;7.266;2023-03-01T11:52:36;10.80;91.60
1447;DHT22;717;51.522;7.266;2023-03-01T11:55:19;10.90;91.60
1447;DHT22;717;51.522;7.266;2023-03-01T11:58:04;11.00;91.60
1447;DHT22;717;51.522;7.266;2023-03-01T12:00:54;11.10;91.50
1447;DHT22;717;51.522;7.266;2023-03-01T12:03:33;11.20;91.30
1447;DHT22;717;51.522;7.266;2023-03-01T12:06:25;11.30;91.40
1447;DHT22;717;51.522;7.266;2023-03-01T12:09:19;11.40;91.40
1447;DHT22;717;51.522;7.266;2023-03-01T12:12:03;11.50;91.20
1447;DHT22;717;51.522;7.266;2023-03-01T12:14:55;11.60;91.30
1447;DHT22;717;51.522;7.266;2023-03-01T12:17:44;11.70;91.50
1447;DHT22;717;51.522;7.266;2023-03-01T12:20:21;11.80;91.40
1447;DHT22;717;51.522;7.266;2023-03-01T12:23:11;11.90;91.20
1447;DHT22;717;51.522;7.266;2023-03-01T12:25:48;12.00;91.00
1447;DHT22;717;51.522;7.266;2023-03-01T12:28:39;12.10;90.90
1447;DHT22;717;51.522;7.266;2023-03-01T12:31:49;12.20;90.90
1447;DHT22;717;51.522;7.266;2023-03-01T12:37:25;12.30;90.80
1447;DHT22;717;51.522;7.266;2023-03-01T12:40:11;12.40;90.50
1447;DHT22;717;51.522;7.266;2023-03-01T12:42:48;12.50;90.30
1447;DHT22;717;51.522;7.266;2023-03-01T12:45:39;12.60;90.30
1447;DHT22;717;51.522;7.266;2023-03-01T12:48:24;12.60;90.20
1447;DHT22;717;51.522;7.266;2023-03-01T12:51:01;12.70;90.00
1447;DHT22;717;51.522;7.266;2023-03-01T12:53:34;12.80;89.90
1447;DHT22;717;51.522;7.266;2023-03-01T12:56:06;12.80;89.90
1447;DHT22;717;51.522;7.266;2023-03-01T12:58:39;12.90;89.00
1447;DHT22;717;51.522;7.266;2023-03-01T13:01:19;12.90;89.10
1447;DHT22;717;51.522;7.266;2023-03-01T13:04:07;13.00;88.70
1447;DHT22;717;51.522;7.266;2023-03-01T13:06:50;13.00;88.00
1447;DHT22;717;51.522;7.266;2023-03-01T13:09:26;13.10;88.20
1447;DHT22;717;51.522;7.266;2023-03-01T13:11:57;13.10;88.10
1447;DHT22;717;51.522;7.266;2023-03-01T13:14:45;13.20;87.90
1447;DHT22;717;51.522;7.266;2023-03-01T13:17:33;13.30;87.60
1447;DHT22;717;51.522;7.266;2023-03-01T13:20:01;13.30;87.00
1447;DHT22;717;51.522;7.266;2023-03-01T13:22:33;13.30;87.10
1447;DHT22;717;51.522;7.266;2023-03-01T13:25:12;13.40;87.20
1447;DHT22;717;51.522;7.266;2023-03-01T13:27:44;13.50;86.90
1447;DHT22;717;51.522;7.266;2023-03-01T13:30:38;13.50;86.60
1447;DHT22;717;51.522;7.266;2023-03-01T13:36:07;13.60;85.90
1447;DHT22;717;51.522;7.266;2023-03-01T13:38:55;13.60;85.70
1447;DHT22;717;51.522;7.266;2023-03-01T13:41:49;13.70;85.20
1447;DHT22;717;51.522;7.266;2023-03-01T13:44:24;13.70;85.70
1447;DHT22;717;51.522;7.266;2023-03-01T13:46:57;13.70;85.30
1447;DHT22;717;51.522;7.266;2023-03-01T13:49:28;13.70;85.10
1447;DHT22;717;51.522;7.266;2023-03-01T13:51:57;13.80;84.90
1447;DHT22;717;51.522;7.266;2023-03-01T13:54:30;13.80;85.10
1447;DHT22;717;51.522;7.266;2023-03-01T13:57:00;13.90;84.80
1447;DHT22;717;51.522;7.266;2023-03-01T13:59:29;13.90;84.30
1447;DHT22;717;51.522;7.266;2023-03-01T14:01:59;14.00;84.30
1447;DHT22;717;51.522;7.266;2023-03-01T14:04:29;14.00;84.10
1447;DHT22;717;51.522;7.266;2023-03-01T14:07:12;14.10;83.90
1447;DHT22;717;51.522;7.266;2023-03-01T14:09:45;14.10;83.60
1447;DHT22;717;51.522;7.266;2023-03-01T14:12:22;14.10;83.70
1447;DHT22;717;51.522;7.266;2023-03-01T14:14:59;14.20;83.80
1447;DHT22;717;51.522;7.266;2023-03-01T14:20:23;14.30;83.20
1447;DHT22;717;51.522;7.266;2023-03-01T14:22:54;14.40;83.60
1447;DHT22;717;51.522;7.266;2023-03-01T14:25:28;14.40;83.30
1447;DHT22;717;51.522;7.266;2023-03-01T14:28:00;14.50;82.90
1447;DHT22;717;51.522;7.266;2023-03-01T14:30:33;14.50;82.80
1447;DHT22;717;51.522;7.266;2023-03-01T14:33:04;14.60;82.60
1447;DHT22;717;51.522;7.266;2023-03-01T14:35:35;14.60;82.00
1447;DHT22;717;51.522;7.266;2023-03-01T14:38:04;14.60;81.80
1447;DHT22;717;51.522;7.266;2023-03-01T14:40:36;14.60;81.10
1447;DHT22;717;51.522;7.266;2023-03-01T14:43:10;14.60;81.40
1447;DHT22;717;51.522;7.266;2023-03-01T14:45:39;14.60;81.30
1447;DHT22;717;51.522;7.266;2023-03-01T14:48:15;14.60;81.00
1447;DHT22;717;51.522;7.266;2023-03-01T14:50:44;14.70;81.20
1447;DHT22;717;51.522;7.266;2023-03-01T14:53:17;14.70;81.00
1447;DHT22;717;51.522;7.266;2023-03-01T14:55:51;14.70;80.80
1447;DHT22;717;51.522;7.266;2023-03-01T14:58:22;14.70;80.80
1447;DHT22;717;51.522;7.266;2023-03-01T15:00:52;14.70;80.70
1447;DHT22;717;51.522;7.266;2023-03-01T15:03:27;14.70;80.80
1447;DHT22;717;51.522;7.266;2023-03-01T15:05:59;14.80;80.70
1447;DHT22;717;51.522;7.266;2023-03-01T15:08:29;14.80;80.10
1447;DHT22;717;51.522;7.266;2023-03-01T15:11:03;14.80;79.70
1447;DHT22;717;51.522;7.266;2023-03-01T15:13:34;14.80;79.50
1447;DHT22;717;51.522;7.266;2023-03-01T15:16:10;14.80;79.40
1447;DHT22;717;51.522;7.266;2023-03-01T15:18:43;14.80;79.10
1447;DHT22;717;51.522;7.266;2023-03-01T15:21:17;14.80;78.90
1447;DHT22;717;51.522;7.266;2023-03-01T15:23:49;14.80;79.00
1447;DHT22;717;51.522;7.266;2023-03-01T15:26:27;14.80;79.00
1447;DHT22;717;51.522;7.266;2023-03-01T15:28:58;14.80;79.10
1447;DHT22;717;51.522;7.266;2023-03-01T15:31:37;14.80;79.00
1447;DHT22;717;51.522;7.266;2023-03-01T15:34:11;14.70;79.00
1447;DHT22;717;51.522;7.266;2023-03-01T15:36:50;14.70;78.50
1447;DHT22;717;51.522;7.266;2023-03-01T15:39:43;14.60;78.40
1447;DHT22;717;51.522;7.266;2023-03-01T15:42:38;14.60;79.00
1447;DHT22;717;51.522;7.266;2023-03-01T15:45:19;14.50;78.60
1447;DHT22;717;51.522;7.266;2023-03-01T15:47:50;14.50;78.60
1447;DHT22;717;51.522;7.266;2023-03-01T15:50:22;14.40;78.30
1447;DHT22;717;51.522;7.266;2023-03-01T15:52:51;14.40;78.50
1447;DHT22;717;51.522;7.266;2023-03-01T15:55:22;14.30;77.80
1447;DHT22;717;51.522;7.266;2023-03-01T15:57:58;14.30;77.40
1447;DHT22;717;51.522;7.266;2023-03-01T16:00:28;14.20;77.20
1447;DHT22;717;51.522;7.266;2023-03-01T16:02:57;14.10;76.90
1447;DHT22;717;51.522;7.266;2023-03-01T16:05:27;14.10;77.00
1447;DHT22;717;51.522;7.266;2023-03-01T16:07:56;14.00;76.80
1447;DHT22;717;51.522;7.266;2023-03-01T16:10:26;14.00;77.10
1447;DHT22;717;51.522;7.266;2023-03-01T16:12:58;13.90;77.10
1447;DHT22;717;51.522;7.266;2023-03-01T16:15:28;13.90;77.20
1447;DHT22;717;51.522;7.266;2023-03-01T16:17:57;13.90;77.10
1447;DHT22;717;51.522;7.266;2023-03-01T16:20:26;13.80;76.50
1447;DHT22;717;51.522;7.266;2023-03-01T16:22:57;13.80;76.30
1447;DHT22;717;51.522;7.266;2023-03-01T16:25:26;13.80;76.50
1447;DHT22;717;51.522;7.266;2023-03-01T16:27:58;13.70;76.40
1447;DHT22;717;51.522;7.266;2023-03-01T16:30:30;13.60;76.00
1447;DHT22;717;51.522;7.266;2023-03-01T16:32:59;13.60;76.00
1447;DHT22;717;51.522;7.266;2023-03-01T16:35:27;13.50;75.90
1447;DHT22;717;51.522;7.266;2023-03-01T16:37:56;13.50;76.80
1447;DHT22;717;51.522;7.266;2023-03-01T16:40:27;13.40;76.10
1447;DHT22;717;51.522;7.266;2023-03-01T16:42:58;13.40;76.30
1447;DHT22;717;51.522;7.266;2023-03-01T16:45:29;13.40;76.60
1447;DHT22;717;51.522;7.266;2023-03-01T16:48:00;13.40;76.80
1447;DHT22;717;51.522;7.266;2023-03-01T16:50:29;13.30;76.40
1447;DHT22;717;51.522;7.266;2023-03-01T16:52:57;13.30;76.40
1447;DHT22;717;51.522;7.266;2023-03-01T16:55:26;13.30;76.60
1447;DHT22;717;51.522;7.266;2023-03-01T16:57:55;13.20;76.90
1447;DHT22;717;51.522;7.266;2023-03-01T17:00:26;13.20;76.90
1447;DHT22;717;51.522;7.266;2023-03-01T17:02:55;13.20;76.80
1447;DHT22;717;51.522;7.266;2023-03-01T17:05:23;13.10;77.10
1447;DHT22;717;51.522;7.266;2023-03-01T17:07:52;13.10;77.10
1447;DHT22;717;51.522;7.266;2023-03-01T17:10:22;13.00;77.20
1447;DHT22;717;51.522;7.266;2023-03-01T17:12:51;13.00;76.70
1447;DHT22;717;51.522;7.266;2023-03-01T17:15:19;12.90;77.30
1447;DHT22;717;51.522;7.266;2023-03-01T17:17:50;12.90;77.30
1447;DHT22;717;51.522;7.266;2023-03-01T17:20:19;12.80;77.60